sensor_id;sensor_type;location;lat;lon;timestamp;P1;durP1;ratioP1;P2;durP2;ratioP2
5730;SDS011;2890;51.950;7.668;2022-10-31T00:00:54;15.45;;;9.50;;
5730;SDS011;2890;51.950;7.668;2022-10-31T00:03:21;17.00;;;9.65;;
5730;SDS011;2890;51.950;7.668;2022-10-31T00:05:48;15.82;;;10.45;;
5730;SDS011;2890;51.950;7.668;2022-10-31T00:08:16;18.60;;;10.10;;
5730;SDS011;2890;51.950;7.668;2022-10-31T00:10:43;15.70;;;9.68;;
5730;SDS011;2890;51.950;7.668;2022-10-31T00:13:11;16.75;;;10.23;;
5730;SDS011;2890;51.950;7.668;2022-10-31T00:15:39;21.25;;;10.77;;
5730;SDS011;2890;51.950;7.668;2022-10-31T00:18:08;16.15;;;9.80;;
5730;SDS011;2890;51.950;7.668;2022-10-31T00:20:36;14.00;;;10.38;;
5730;SDS011;2890;51.950;7.668;2022-10-31T00:23:04;12.57;;;9.50;;
5730;SDS011;2890;51.950;7.668;2022-10-31T00:25:32;13.35;;;9.40;;
5730;SDS011;2890;51.950;7.668;2022-10-31T00:28:00;16.52;;;10.02;;
5730;SDS011;2890;51.950;7.668;2022-10-31T00:30:27;18.58;;;10.55;;
5730;SDS011;2890;51.950;7.668;2022-10-31T00:32:54;21.85;;;11.23;;
5730;SDS011;2890;51.950;7.668;2022-10-31T00:35:23;17.33;;;10.95;;
5730;SDS011;2890;51.950;7.668;2022-10-31T00:37:50;16.40;;;10.52;;
5730;SDS011;2890;51.950;7.668;2022-10-31T00:40:17;18.70;;;12.38;;
5730;SDS011;2890;51.950;7.668;2022-10-31T00:42:44;19.42;;;11.60;;
5730;SDS011;2890;51.950;7.668;2022-10-31T00:45:11;24.40;;;10.98;;
5730;SDS011;2890;51.950;7.668;2022-10-31T00:47:38;21.70;;;11.82;;
5730;SDS011;2890;51.950;7.668;2022-10-31T00:50:05;16.92;;;10.15;;
5730;SDS011;2890;51.950;7.668;2022-10-31T00:52:34;17.33;;;11.80;;
5730;SDS011;2890;51.950;7.668;2022-10-31T00:55:01;19.42;;;10.52;;
5730;SDS011;2890;51.950;7.668;2022-10-31T00:57:28;15.57;;;11.63;;
5730;SDS011;2890;51.950;7.668;2022-10-31T00:59:55;18.08;;;11.23;;
5730;SDS011;2890;51.950;7.668;2022-10-31T01:02:22;17.63;;;11.35;;
5730;SDS011;2890;51.950;7.668;2022-10-31T01:04:49;15.45;;;9.82;;
5730;SDS011;2890;51.950;7.668;2022-10-31T01:07:16;21.80;;;11.02;;
5730;SDS011;2890;51.950;7.668;2022-10-31T01:09:45;15.60;;;10.65;;
5730;SDS011;2890;51.950;7.668;2022-10-31T01:12:12;19.15;;;10.43;;
5730;SDS011;2890;51.950;7.668;2022-10-31T01:14:42;20.27;;;11.45;;
5730;SDS011;2890;51.950;7.668;2022-10-31T01:17:09;15.45;;;10.73;;
5730;SDS011;2890;51.950;7.668;2022-10-31T01:19:36;16.77;;;11.00;;
5730;SDS011;2890;51.950;7.668;2022-10-31T01:22:03;17.33;;;10.70;;
5730;SDS011;2890;51.950;7.668;2022-10-31T01:24:30;17.98;;;11.45;;
5730;SDS011;2890;51.950;7.668;2022-10-31T01:26:59;20.73;;;12.18;;
5730;SDS011;2890;51.950;7.668;2022-10-31T01:29:26;17.55;;;11.65;;
5730;SDS011;2890;51.950;7.668;2022-10-31T01:31:53;15.18;;;11.13;;
5730;SDS011;2890;51.950;7.668;2022-10-31T01:34:20;20.67;;;12.32;;
5730;SDS011;2890;51.950;7.668;2022-10-31T01:36:47;15.82;;;11.32;;
5730;SDS011;2890;51.950;7.668;2022-10-31T01:39:16;19.67;;;11.30;;
5730;SDS011;2890;51.950;7.668;2022-10-31T01:41:44;17.30;;;11.20;;
5730;SDS011;2890;51.950;7.668;2022-10-31T01:46:59;17.35;;;11.90;;
5730;SDS011;2890;51.950;7.668;2022-10-31T01:49:30;14.98;;;9.88;;
5730;SDS011;2890;51.950;7.668;2022-10-31T01:52:01;15.57;;;11.43;;
5730;SDS011;2890;51.950;7.668;2022-10-31T01:54:30;15.70;;;10.40;;
5730;SDS011;2890;51.950;7.668;2022-10-31T01:57:00;16.52;;;11.40;;
5730;SDS011;2890;51.950;7.668;2022-10-31T01:59:29;17.00;;;11.07;;
5730;SDS011;2890;51.950;7.668;2022-10-31T02:01:59;17.42;;;11.38;;
5730;SDS011;2890;51.950;7.668;2022-10-31T02:04:26;18.73;;;11.23;;
5730;SDS011;2890;51.950;7.668;2022-10-31T02:06:55;18.35;;;11.45;;
5730;SDS011;2890;51.950;7.668;2022-10-31T02:09:23;14.98;;;10.68;;
5730;SDS011;2890;51.950;7.668;2022-10-31T02:11:51;19.13;;;11.05;;
5730;SDS011;2890;51.950;7.668;2022-10-31T02:14:19;16.92;;;10.13;;
5730;SDS011;2890;51.950;7.668;2022-10-31T02:16:47;15.48;;;10.82;;
5730;SDS011;2890;51.950;7.668;2022-10-31T02:19:17;18.80;;;10.73;;
5730;SDS011;2890;51.950;7.668;2022-10-31T02:21:47;18.05;;;11.13;;
5730;SDS011;2890;51.950;7.668;2022-10-31T02:24:23;20.60;;;11.30;;
5730;SDS011;2890;51.950;7.668;2022-10-31T02:27:10;20.05;;;12.52;;
5730;SDS011;2890;51.950;7.668;2022-10-31T02:29:55;20.50;;;11.68;;
5730;SDS011;2890;51.950;7.668;2022-10-31T02:32:29;17.10;;;10.77;;
5730;SDS011;2890;51.950;7.668;2022-10-31T02:34:58;16.80;;;11.52;;
5730;SDS011;2890;51.950;7.668;2022-10-31T02:37:31;17.60;;;12.25;;
5730;SDS011;2890;51.950;7.668;2022-10-31T02:40:04;16.88;;;11.88;;
5730;SDS011;2890;51.950;7.668;2022-10-31T02:42:33;16.90;;;11.57;;
5730;SDS011;2890;51.950;7.668;2022-10-31T02:45:03;19.23;;;12.38;;
5730;SDS011;2890;51.950;7.668;2022-10-31T02:47:36;20.88;;;12.05;;
5730;SDS011;2890;51.950;7.668;2022-10-31T02:50:04;17.30;;;11.35;;
5730;SDS011;2890;51.950;7.668;2022-10-31T02:52:34;20.10;;;11.35;;
5730;SDS011;2890;51.950;7.668;2022-10-31T02:55:09;17.88;;;11.70;;
5730;SDS011;2890;51.950;7.668;2022-10-31T02:57:36;19.27;;;12.32;;
5730;SDS011;2890;51.950;7.668;2022-10-31T03:00:05;16.40;;;11.80;;
5730;SDS011;2890;51.950;7.668;2022-10-31T03:02:45;18.33;;;11.80;;
5730;SDS011;2890;51.950;7.668;2022-10-31T03:05:37;21.50;;;13.15;;
5730;SDS011;2890;51.950;7.668;2022-10-31T03:08:09;18.75;;;12.38;;
5730;SDS011;2890;51.950;7.668;2022-10-31T03:10:39;16.45;;;11.93;;
5730;SDS011;2890;51.950;7.668;2022-10-31T03:13:09;20.88;;;12.65;;
5730;SDS011;2890;51.950;7.668;2022-10-31T03:15:37;18.00;;;12.13;;
5730;SDS011;2890;51.950;7.668;2022-10-31T03:18:07;22.77;;;14.88;;
5730;SDS011;2890;51.950;7.668;2022-10-31T03:20:37;20.50;;;14.02;;
5730;SDS011;2890;51.950;7.668;2022-10-31T03:23:06;19.52;;;13.52;;
5730;SDS011;2890;51.950;7.668;2022-10-31T03:25:35;20.05;;;12.98;;
5730;SDS011;2890;51.950;7.668;2022-10-31T03:28:03;21.48;;;13.48;;
5730;SDS011;2890;51.950;7.668;2022-10-31T03:30:33;23.73;;;13.35;;
5730;SDS011;2890;51.950;7.668;2022-10-31T03:33:00;20.83;;;12.77;;
5730;SDS011;2890;51.950;7.668;2022-10-31T03:35:31;17.77;;;12.10;;
5730;SDS011;2890;51.950;7.668;2022-10-31T03:37:59;19.27;;;12.05;;
5730;SDS011;2890;51.950;7.668;2022-10-31T03:40:27;24.05;;;15.75;;
5730;SDS011;2890;51.950;7.668;2022-10-31T03:42:58;23.45;;;13.93;;
5730;SDS011;2890;51.950;7.668;2022-10-31T03:45:28;23.77;;;14.90;;
5730;SDS011;2890;51.950;7.668;2022-10-31T03:47:55;20.38;;;13.02;;
5730;SDS011;2890;51.950;7.668;2022-10-31T03:50:23;18.48;;;13.57;;
5730;SDS011;2890;51.950;7.668;2022-10-31T03:52:55;18.38;;;12.32;;
5730;SDS011;2890;51.950;7.668;2022-10-31T03:55:24;19.92;;;12.48;;
5730;SDS011;2890;51.950;7.668;2022-10-31T03:57:54;17.88;;;12.13;;
5730;SDS011;2890;51.950;7.668;2022-10-31T04:00:24;16.63;;;10.32;;
5730;SDS011;2890;51.950;7.668;2022-10-31T04:02:53;17.55;;;11.50;;
5730;SDS011;2890;51.950;7.668;2022-10-31T04:05:20;15.63;;;10.98;;
5730;SDS011;2890;51.950;7.668;2022-10-31T04:07:49;17.83;;;11.32;;
5730;SDS011;2890;51.950;7.668;2022-10-31T04:10:19;16.35;;;10.77;;
5730;SDS011;2890;51.950;7.668;2022-10-31T04:12:48;15.48;;;11.10;;
5730;SDS011;2890;51.950;7.668;2022-10-31T04:15:16;16.70;;;10.65;;
5730;SDS011;2890;51.950;7.668;2022-10-31T04:17:44;16.05;;;10.70;;
5730;SDS011;2890;51.950;7.668;2022-10-31T04:20:13;14.57;;;9.93;;
5730;SDS011;2890;51.950;7.668;2022-10-31T04:22:41;14.73;;;10.43;;
5730;SDS011;2890;51.950;7.668;2022-10-31T04:25:09;15.00;;;9.98;;
5730;SDS011;2890;51.950;7.668;2022-10-31T04:27:37;12.75;;;9.52;;
5730;SDS011;2890;51.950;7.668;2022-10-31T04:30:04;16.30;;;9.95;;
5730;SDS011;2890;51.950;7.668;2022-10-31T04:32:32;13.93;;;9.98;;
5730;SDS011;2890;51.950;7.668;2022-10-31T04:34:59;14.68;;;10.65;;
5730;SDS011;2890;51.950;7.668;2022-10-31T04:37:26;14.30;;;10.07;;
5730;SDS011;2890;51.950;7.668;2022-10-31T04:39:53;17.73;;;11.13;;
5730;SDS011;2890;51.950;7.668;2022-10-31T04:42:20;17.08;;;11.15;;
5730;SDS011;2890;51.950;7.668;2022-10-31T04:44:48;15.43;;;10.68;;
5730;SDS011;2890;51.950;7.668;2022-10-31T04:47:15;20.65;;;11.45;;
5730;SDS011;2890;51.950;7.668;2022-10-31T04:49:42;15.65;;;10.68;;
5730;SDS011;2890;51.950;7.668;2022-10-31T04:52:09;13.35;;;9.50;;
5730;SDS011;2890;51.950;7.668;2022-10-31T04:54:37;11.13;;;9.25;;
5730;SDS011;2890;51.950;7.668;2022-10-31T04:57:04;12.93;;;9.65;;
5730;SDS011;2890;51.950;7.668;2022-10-31T04:59:31;16.23;;;9.45;;
5730;SDS011;2890;51.950;7.668;2022-10-31T05:01:59;14.40;;;10.75;;
5730;SDS011;2890;51.950;7.668;2022-10-31T05:04:26;17.15;;;11.07;;
5730;SDS011;2890;51.950;7.668;2022-10-31T05:06:53;17.73;;;10.55;;
5730;SDS011;2890;51.950;7.668;2022-10-31T05:09:20;18.85;;;10.35;;
5730;SDS011;2890;51.950;7.668;2022-10-31T05:11:47;17.98;;;11.00;;
5730;SDS011;2890;51.950;7.668;2022-10-31T05:14:14;20.58;;;10.57;;
5730;SDS011;2890;51.950;7.668;2022-10-31T05:16:41;15.55;;;9.75;;
5730;SDS011;2890;51.950;7.668;2022-10-31T05:19:10;18.05;;;10.30;;
5730;SDS011;2890;51.950;7.668;2022-10-31T05:21:37;15.93;;;10.35;;
5730;SDS011;2890;51.950;7.668;2022-10-31T05:24:04;15.17;;;9.77;;
5730;SDS011;2890;51.950;7.668;2022-10-31T05:26:31;16.93;;;10.60;;
5730;SDS011;2890;51.950;7.668;2022-10-31T05:28:58;16.23;;;9.65;;
5730;SDS011;2890;51.950;7.668;2022-10-31T05:31:25;14.93;;;9.85;;
5730;SDS011;2890;51.950;7.668;2022-10-31T05:33:52;14.02;;;9.38;;
5730;SDS011;2890;51.950;7.668;2022-10-31T05:36:21;14.77;;;10.57;;
5730;SDS011;2890;51.950;7.668;2022-10-31T05:38:48;14.45;;;9.50;;
5730;SDS011;2890;51.950;7.668;2022-10-31T05:41:15;17.17;;;10.52;;
5730;SDS011;2890;51.950;7.668;2022-10-31T05:43:42;15.97;;;11.60;;
5730;SDS011;2890;51.950;7.668;2022-10-31T05:46:09;14.05;;;10.48;;
5730;SDS011;2890;51.950;7.668;2022-10-31T05:48:36;15.30;;;10.53;;
5730;SDS011;2890;51.950;7.668;2022-10-31T05:51:03;15.93;;;10.97;;
5730;SDS011;2890;51.950;7.668;2022-10-31T05:53:31;17.85;;;11.45;;
5730;SDS011;2890;51.950;7.668;2022-10-31T05:55:58;16.00;;;11.13;;
5730;SDS011;2890;51.950;7.668;2022-10-31T05:58:25;14.80;;;10.35;;
5730;SDS011;2890;51.950;7.668;2022-10-31T06:00:52;15.13;;;11.65;;
5730;SDS011;2890;51.950;7.668;2022-10-31T06:03:19;13.43;;;10.32;;
5730;SDS011;2890;51.950;7.668;2022-10-31T06:05:46;15.20;;;9.95;;
5730;SDS011;2890;51.950;7.668;2022-10-31T06:08:13;15.43;;;11.20;;
5730;SDS011;2890;51.950;7.668;2022-10-31T06:10:42;18.27;;;13.10;;
5730;SDS011;2890;51.950;7.668;2022-10-31T06:13:09;15.98;;;11.75;;
5730;SDS011;2890;51.950;7.668;2022-10-31T06:15:37;13.52;;;10.40;;
5730;SDS011;2890;51.950;7.668;2022-10-31T06:18:05;13.00;;;9.95;;
5730;SDS011;2890;51.950;7.668;2022-10-31T06:20:32;11.20;;;9.23;;
5730;SDS011;2890;51.950;7.668;2022-10-31T06:22:59;12.23;;;9.38;;
5730;SDS011;2890;51.950;7.668;2022-10-31T06:25:27;12.88;;;10.57;;
5730;SDS011;2890;51.950;7.668;2022-10-31T06:27:55;15.07;;;11.68;;
5730;SDS011;2890;51.950;7.668;2022-10-31T06:30:22;17.27;;;11.73;;
5730;SDS011;2890;51.950;7.668;2022-10-31T06:32:49;19.00;;;12.87;;
5730;SDS011;2890;51.950;7.668;2022-10-31T06:35:16;20.13;;;11.57;;
5730;SDS011;2890;51.950;7.668;2022-10-31T06:37:50;20.77;;;12.55;;
5730;SDS011;2890;51.950;7.668;2022-10-31T06:40:17;16.85;;;11.57;;
5730;SDS011;2890;51.950;7.668;2022-10-31T06:42:44;12.57;;;10.10;;
5730;SDS011;2890;51.950;7.668;2022-10-31T06:45:12;13.15;;;9.18;;
5730;SDS011;2890;51.950;7.668;2022-10-31T06:47:39;9.60;;;8.57;;
5730;SDS011;2890;51.950;7.668;2022-10-31T06:50:07;13.98;;;9.18;;
5730;SDS011;2890;51.950;7.668;2022-10-31T06:52:34;11.85;;;8.85;;
5730;SDS011;2890;51.950;7.668;2022-10-31T06:55:01;12.60;;;10.07;;
5730;SDS011;2890;51.950;7.668;2022-10-31T06:57:28;12.30;;;9.27;;
5730;SDS011;2890;51.950;7.668;2022-10-31T06:59:55;13.55;;;9.25;;
5730;SDS011;2890;51.950;7.668;2022-10-31T07:02:23;11.43;;;8.43;;
5730;SDS011;2890;51.950;7.668;2022-10-31T07:04:50;12.07;;;9.52;;
5730;SDS011;2890;51.950;7.668;2022-10-31T07:07:17;10.47;;;7.97;;
5730;SDS011;2890;51.950;7.668;2022-10-31T07:09:46;10.65;;;8.63;;
5730;SDS011;2890;51.950;7.668;2022-10-31T07:12:13;9.48;;;8.27;;
5730;SDS011;2890;51.950;7.668;2022-10-31T07:14:40;9.05;;;8.13;;
5730;SDS011;2890;51.950;7.668;2022-10-31T07:17:07;8.57;;;7.68;;
5730;SDS011;2890;51.950;7.668;2022-10-31T07:19:35;8.65;;;7.75;;
5730;SDS011;2890;51.950;7.668;2022-10-31T07:22:02;11.60;;;8.48;;
5730;SDS011;2890;51.950;7.668;2022-10-31T07:24:29;14.68;;;9.55;;
5730;SDS011;2890;51.950;7.668;2022-10-31T07:26:56;12.65;;;9.05;;
5730;SDS011;2890;51.950;7.668;2022-10-31T07:29:23;13.18;;;9.20;;
5730;SDS011;2890;51.950;7.668;2022-10-31T07:31:51;15.02;;;9.63;;
5730;SDS011;2890;51.950;7.668;2022-10-31T07:34:18;12.65;;;8.90;;
5730;SDS011;2890;51.950;7.668;2022-10-31T07:36:46;10.82;;;8.80;;
5730;SDS011;2890;51.950;7.668;2022-10-31T07:39:13;12.68;;;9.07;;
5730;SDS011;2890;51.950;7.668;2022-10-31T07:41:40;10.77;;;8.38;;
5730;SDS011;2890;51.950;7.668;2022-10-31T07:44:07;12.15;;;8.68;;
5730;SDS011;2890;51.950;7.668;2022-10-31T07:46:34;11.75;;;8.88;;
5730;SDS011;2890;51.950;7.668;2022-10-31T07:49:01;9.15;;;7.53;;
5730;SDS011;2890;51.950;7.668;2022-10-31T07:51:29;9.52;;;8.52;;
5730;SDS011;2890;51.950;7.668;2022-10-31T07:53:57;10.50;;;8.35;;
5730;SDS011;2890;51.950;7.668;2022-10-31T07:56:24;8.40;;;6.95;;
5730;SDS011;2890;51.950;7.668;2022-10-31T07:58:51;8.15;;;7.30;;
5730;SDS011;2890;51.950;7.668;2022-10-31T08:01:18;11.77;;;7.55;;
5730;SDS011;2890;51.950;7.668;2022-10-31T08:03:45;9.45;;;7.47;;
5730;SDS011;2890;51.950;7.668;2022-10-31T08:06:12;10.40;;;8.15;;
5730;SDS011;2890;51.950;7.668;2022-10-31T08:08:39;8.88;;;7.95;;
5730;SDS011;2890;51.950;7.668;2022-10-31T08:11:08;11.93;;;8.10;;
5730;SDS011;2890;51.950;7.668;2022-10-31T08:13:35;10.00;;;8.48;;
5730;SDS011;2890;51.950;7.668;2022-10-31T08:16:02;10.82;;;8.43;;
5730;SDS011;2890;51.950;7.668;2022-10-31T08:18:29;10.27;;;8.10;;
5730;SDS011;2890;51.950;7.668;2022-10-31T08:20:57;11.30;;;8.27;;
5730;SDS011;2890;51.950;7.668;2022-10-31T08:23:24;9.50;;;8.50;;
5730;SDS011;2890;51.950;7.668;2022-10-31T08:25:51;10.38;;;8.52;;
5730;SDS011;2890;51.950;7.668;2022-10-31T08:28:19;9.65;;;8.13;;
5730;SDS011;2890;51.950;7.668;2022-10-31T08:30:46;11.35;;;7.40;;
5730;SDS011;2890;51.950;7.668;2022-10-31T08:33:14;9.20;;;8.02;;
5730;SDS011;2890;51.950;7.668;2022-10-31T08:35:41;10.32;;;8.20;;
5730;SDS011;2890;51.950;7.668;2022-10-31T08:38:09;12.30;;;8.00;;
5730;SDS011;2890;51.950;7.668;2022-10-31T08:40:36;11.85;;;9.05;;
5730;SDS011;2890;51.950;7.668;2022-10-31T08:43:04;9.23;;;8.07;;
5730;SDS011;2890;51.950;7.668;2022-10-31T08:45:33;10.05;;;8.00;;
5730;SDS011;2890;51.950;7.668;2022-10-31T08:48:01;15.20;;;11.00;;
5730;SDS011;2890;51.950;7.668;2022-10-31T08:50:28;21.90;;;11.93;;
5730;SDS011;2890;51.950;7.668;2022-10-31T08:52:59;12.60;;;9.43;;
5730;SDS011;2890;51.950;7.668;2022-10-31T08:55:26;12.77;;;8.30;;
5730;SDS011;2890;51.950;7.668;2022-10-31T08:57:54;11.25;;;8.55;;
5730;SDS011;2890;51.950;7.668;2022-10-31T09:00:21;14.70;;;9.38;;
5730;SDS011;2890;51.950;7.668;2022-10-31T09:02:55;11.50;;;9.02;;
5730;SDS011;2890;51.950;7.668;2022-10-31T09:05:22;10.10;;;8.88;;
5730;SDS011;2890;51.950;7.668;2022-10-31T09:07:49;9.85;;;8.57;;
5730;SDS011;2890;51.950;7.668;2022-10-31T09:10:16;11.68;;;8.52;;
5730;SDS011;2890;51.950;7.668;2022-10-31T09:12:43;14.35;;;8.98;;
5730;SDS011;2890;51.950;7.668;2022-10-31T09:15:10;13.27;;;8.85;;
5730;SDS011;2890;51.950;7.668;2022-10-31T09:17:38;14.00;;;9.23;;
5730;SDS011;2890;51.950;7.668;2022-10-31T09:20:06;10.32;;;9.15;;
5730;SDS011;2890;51.950;7.668;2022-10-31T09:22:34;10.63;;;9.38;;
5730;SDS011;2890;51.950;7.668;2022-10-31T09:25:01;12.95;;;9.90;;
5730;SDS011;2890;51.950;7.668;2022-10-31T09:27:28;14.48;;;10.07;;
5730;SDS011;2890;51.950;7.668;2022-10-31T09:29:55;16.88;;;10.45;;
5730;SDS011;2890;51.950;7.668;2022-10-31T09:32:22;14.93;;;10.65;;
5730;SDS011;2890;51.950;7.668;2022-10-31T09:34:49;17.08;;;10.50;;
5730;SDS011;2890;51.950;7.668;2022-10-31T09:37:17;12.98;;;9.98;;
5730;SDS011;2890;51.950;7.668;2022-10-31T09:39:45;16.98;;;10.95;;
5730;SDS011;2890;51.950;7.668;2022-10-31T09:42:23;14.50;;;9.90;;
5730;SDS011;2890;51.950;7.668;2022-10-31T09:44:53;16.45;;;11.27;;
5730;SDS011;2890;51.950;7.668;2022-10-31T09:47:25;16.83;;;11.68;;
5730;SDS011;2890;51.950;7.668;2022-10-31T09:49:59;15.40;;;11.00;;
5730;SDS011;2890;51.950;7.668;2022-10-31T09:52:31;15.75;;;11.27;;
5730;SDS011;2890;51.950;7.668;2022-10-31T09:55:00;18.33;;;12.05;;
5730;SDS011;2890;51.950;7.668;2022-10-31T09:57:30;16.20;;;11.90;;
5730;SDS011;2890;51.950;7.668;2022-10-31T09:59:58;16.08;;;12.75;;
5730;SDS011;2890;51.950;7.668;2022-10-31T10:02:29;17.88;;;12.55;;
5730;SDS011;2890;51.950;7.668;2022-10-31T10:04:57;16.25;;;12.82;;
5730;SDS011;2890;51.950;7.668;2022-10-31T10:07:28;16.02;;;11.98;;
5730;SDS011;2890;51.950;7.668;2022-10-31T10:09:58;18.88;;;13.77;;
5730;SDS011;2890;51.950;7.668;2022-10-31T10:12:28;17.92;;;11.80;;
5730;SDS011;2890;51.950;7.668;2022-10-31T10:15:07;20.48;;;13.38;;
5730;SDS011;2890;51.950;7.668;2022-10-31T10:17:41;19.73;;;13.20;;
5730;SDS011;2890;51.950;7.668;2022-10-31T10:20:15;21.25;;;13.07;;
5730;SDS011;2890;51.950;7.668;2022-10-31T10:22:47;15.45;;;13.27;;
5730;SDS011;2890;51.950;7.668;2022-10-31T10:25:21;18.73;;;12.50;;
5730;SDS011;2890;51.950;7.668;2022-10-31T10:27:50;19.58;;;14.02;;
5730;SDS011;2890;51.950;7.668;2022-10-31T10:30:19;20.92;;;14.07;;
5730;SDS011;2890;51.950;7.668;2022-10-31T10:32:47;19.63;;;13.13;;
5730;SDS011;2890;51.950;7.668;2022-10-31T10:35:19;22.15;;;14.00;;
5730;SDS011;2890;51.950;7.668;2022-10-31T10:37:46;21.30;;;14.60;;
5730;SDS011;2890;51.950;7.668;2022-10-31T10:40:16;20.83;;;12.63;;
5730;SDS011;2890;51.950;7.668;2022-10-31T10:42:45;19.33;;;13.40;;
5730;SDS011;2890;51.950;7.668;2022-10-31T10:45:34;23.67;;;13.38;;
5730;SDS011;2890;51.950;7.668;2022-10-31T10:48:29;20.23;;;13.40;;
5730;SDS011;2890;51.950;7.668;2022-10-31T10:50:57;18.73;;;12.98;;
5730;SDS011;2890;51.950;7.668;2022-10-31T10:53:27;21.42;;;13.77;;
5730;SDS011;2890;51.950;7.668;2022-10-31T10:56:02;17.10;;;12.00;;
5730;SDS011;2890;51.950;7.668;2022-10-31T10:58:32;19.77;;;13.65;;
5730;SDS011;2890;51.950;7.668;2022-10-31T11:01:01;20.33;;;13.60;;
5730;SDS011;2890;51.950;7.668;2022-10-31T11:03:28;19.77;;;13.50;;
5730;SDS011;2890;51.950;7.668;2022-10-31T11:05:56;22.95;;;13.48;;
5730;SDS011;2890;51.950;7.668;2022-10-31T11:08:26;19.05;;;13.30;;
5730;SDS011;2890;51.950;7.668;2022-10-31T11:11:01;20.02;;;13.45;;
5730;SDS011;2890;51.950;7.668;2022-10-31T11:13:28;18.77;;;12.07;;
5730;SDS011;2890;51.950;7.668;2022-10-31T11:15:58;19.52;;;13.15;;
5730;SDS011;2890;51.950;7.668;2022-10-31T11:18:26;18.92;;;12.55;;
5730;SDS011;2890;51.950;7.668;2022-10-31T11:20:54;17.33;;;11.93;;
5730;SDS011;2890;51.950;7.668;2022-10-31T11:23:22;18.48;;;11.48;;
5730;SDS011;2890;51.950;7.668;2022-10-31T11:25:51;16.00;;;11.35;;
5730;SDS011;2890;51.950;7.668;2022-10-31T11:28:18;15.55;;;11.57;;
5730;SDS011;2890;51.950;7.668;2022-10-31T11:30:47;18.13;;;11.70;;
5730;SDS011;2890;51.950;7.668;2022-10-31T11:33:17;15.07;;;10.57;;
5730;SDS011;2890;51.950;7.668;2022-10-31T11:35:46;17.02;;;10.65;;
5730;SDS011;2890;51.950;7.668;2022-10-31T11:38:15;17.45;;;10.75;;
5730;SDS011;2890;51.950;7.668;2022-10-31T11:40:50;12.38;;;9.70;;
5730;SDS011;2890;51.950;7.668;2022-10-31T11:43:18;19.63;;;10.00;;
5730;SDS011;2890;51.950;7.668;2022-10-31T11:45:45;16.88;;;10.57;;
5730;SDS011;2890;51.950;7.668;2022-10-31T11:48:15;15.82;;;10.07;;
5730;SDS011;2890;51.950;7.668;2022-10-31T11:50:47;15.35;;;9.95;;
5730;SDS011;2890;51.950;7.668;2022-10-31T11:53:16;12.23;;;9.73;;
5730;SDS011;2890;51.950;7.668;2022-10-31T11:55:44;14.27;;;9.23;;
5730;SDS011;2890;51.950;7.668;2022-10-31T11:58:19;16.40;;;10.82;;
5730;SDS011;2890;51.950;7.668;2022-10-31T12:00:48;16.05;;;9.70;;
5730;SDS011;2890;51.950;7.668;2022-10-31T12:03:25;12.52;;;9.07;;
5730;SDS011;2890;51.950;7.668;2022-10-31T12:05:55;16.15;;;9.48;;
5730;SDS011;2890;51.950;7.668;2022-10-31T12:08:25;13.73;;;9.82;;
5730;SDS011;2890;51.950;7.668;2022-10-31T12:10:56;13.45;;;9.30;;
5730;SDS011;2890;51.950;7.668;2022-10-31T12:13:29;14.98;;;10.25;;
5730;SDS011;2890;51.950;7.668;2022-10-31T12:16:00;15.43;;;10.98;;
5730;SDS011;2890;51.950;7.668;2022-10-31T12:18:32;20.90;;;11.10;;
5730;SDS011;2890;51.950;7.668;2022-10-31T12:21:11;17.52;;;11.60;;
5730;SDS011;2890;51.950;7.668;2022-10-31T12:23:44;18.88;;;11.68;;
5730;SDS011;2890;51.950;7.668;2022-10-31T12:26:16;19.65;;;11.70;;
5730;SDS011;2890;51.950;7.668;2022-10-31T12:28:54;20.90;;;11.30;;
5730;SDS011;2890;51.950;7.668;2022-10-31T12:31:31;21.45;;;11.85;;
5730;SDS011;2890;51.950;7.668;2022-10-31T12:34:02;14.13;;;10.95;;
5730;SDS011;2890;51.950;7.668;2022-10-31T12:36:41;18.08;;;11.57;;
5730;SDS011;2890;51.950;7.668;2022-10-31T12:39:17;18.88;;;11.75;;
5730;SDS011;2890;51.950;7.668;2022-10-31T12:41:47;24.27;;;12.13;;
5730;SDS011;2890;51.950;7.668;2022-10-31T12:47:06;19.95;;;12.15;;
5730;SDS011;2890;51.950;7.668;2022-10-31T12:49:39;17.55;;;12.13;;
5730;SDS011;2890;51.950;7.668;2022-10-31T12:52:13;22.42;;;11.85;;
5730;SDS011;2890;51.950;7.668;2022-10-31T12:54:55;20.02;;;13.10;;
5730;SDS011;2890;51.950;7.668;2022-10-31T12:57:29;19.58;;;12.57;;
5730;SDS011;2890;51.950;7.668;2022-10-31T12:59:59;20.75;;;12.90;;
5730;SDS011;2890;51.950;7.668;2022-10-31T13:02:29;25.35;;;13.75;;
5730;SDS011;2890;51.950;7.668;2022-10-31T13:04:58;21.25;;;13.02;;
5730;SDS011;2890;51.950;7.668;2022-10-31T13:07:29;23.85;;;14.27;;
5730;SDS011;2890;51.950;7.668;2022-10-31T13:09:58;25.35;;;13.02;;
5730;SDS011;2890;51.950;7.668;2022-10-31T13:12:27;20.05;;;13.45;;
5730;SDS011;2890;51.950;7.668;2022-10-31T13:14:56;28.05;;;14.02;;
5730;SDS011;2890;51.950;7.668;2022-10-31T13:17:26;25.73;;;13.75;;
5730;SDS011;2890;51.950;7.668;2022-10-31T13:19:55;21.17;;;14.75;;
5730;SDS011;2890;51.950;7.668;2022-10-31T13:22:26;25.77;;;14.15;;
5730;SDS011;2890;51.950;7.668;2022-10-31T13:24:56;25.33;;;14.75;;
5730;SDS011;2890;51.950;7.668;2022-10-31T13:27:26;25.70;;;15.07;;
5730;SDS011;2890;51.950;7.668;2022-10-31T13:29:58;22.23;;;14.95;;
5730;SDS011;2890;51.950;7.668;2022-10-31T13:32:26;23.33;;;14.25;;
5730;SDS011;2890;51.950;7.668;2022-10-31T13:34:55;28.25;;;14.93;;
5730;SDS011;2890;51.950;7.668;2022-10-31T13:37:25;26.90;;;14.77;;
5730;SDS011;2890;51.950;7.668;2022-10-31T13:40:00;25.00;;;14.23;;
5730;SDS011;2890;51.950;7.668;2022-10-31T13:42:32;25.17;;;16.13;;
5730;SDS011;2890;51.950;7.668;2022-10-31T13:45:11;21.25;;;13.98;;
5730;SDS011;2890;51.950;7.668;2022-10-31T13:47:40;23.63;;;14.77;;
5730;SDS011;2890;51.950;7.668;2022-10-31T13:50:18;25.40;;;14.90;;
5730;SDS011;2890;51.950;7.668;2022-10-31T13:52:46;27.05;;;15.18;;
5730;SDS011;2890;51.950;7.668;2022-10-31T13:57:56;28.05;;;15.50;;
5730;SDS011;2890;51.950;7.668;2022-10-31T14:00:24;23.15;;;15.50;;
5730;SDS011;2890;51.950;7.668;2022-10-31T14:02:52;26.55;;;15.32;;
5730;SDS011;2890;51.950;7.668;2022-10-31T14:05:22;27.08;;;15.68;;
5730;SDS011;2890;51.950;7.668;2022-10-31T14:07:49;26.05;;;16.10;;
5730;SDS011;2890;51.950;7.668;2022-10-31T14:10:20;26.00;;;15.63;;
5730;SDS011;2890;51.950;7.668;2022-10-31T14:12:48;29.45;;;15.65;;
5730;SDS011;2890;51.950;7.668;2022-10-31T14:15:17;23.92;;;15.82;;
5730;SDS011;2890;51.950;7.668;2022-10-31T14:17:46;23.70;;;15.73;;
5730;SDS011;2890;51.950;7.668;2022-10-31T14:20:34;27.73;;;16.08;;
5730;SDS011;2890;51.950;7.668;2022-10-31T14:25:47;25.75;;;15.45;;
5730;SDS011;2890;51.950;7.668;2022-10-31T14:28:21;25.50;;;15.88;;
5730;SDS011;2890;51.950;7.668;2022-10-31T14:30:54;22.98;;;15.35;;
5730;SDS011;2890;51.950;7.668;2022-10-31T14:33:22;27.98;;;17.58;;
5730;SDS011;2890;51.950;7.668;2022-10-31T14:35:51;23.95;;;15.10;;
5730;SDS011;2890;51.950;7.668;2022-10-31T14:38:24;24.92;;;15.43;;
5730;SDS011;2890;51.950;7.668;2022-10-31T14:43:44;26.33;;;16.90;;
5730;SDS011;2890;51.950;7.668;2022-10-31T14:46:17;25.20;;;15.63;;
5730;SDS011;2890;51.950;7.668;2022-10-31T14:48:58;23.67;;;16.17;;
5730;SDS011;2890;51.950;7.668;2022-10-31T14:51:26;24.67;;;15.50;;
5730;SDS011;2890;51.950;7.668;2022-10-31T14:53:56;24.55;;;16.90;;
5730;SDS011;2890;51.950;7.668;2022-10-31T14:56:24;29.17;;;16.08;;
5730;SDS011;2890;51.950;7.668;2022-10-31T14:58:52;28.90;;;16.90;;
5730;SDS011;2890;51.950;7.668;2022-10-31T15:01:23;26.67;;;16.40;;
5730;SDS011;2890;51.950;7.668;2022-10-31T15:03:51;28.50;;;16.45;;
5730;SDS011;2890;51.950;7.668;2022-10-31T15:06:20;26.05;;;15.85;;
5730;SDS011;2890;51.950;7.668;2022-10-31T15:08:48;21.52;;;15.05;;
5730;SDS011;2890;51.950;7.668;2022-10-31T15:11:16;28.25;;;16.30;;
5730;SDS011;2890;51.950;7.668;2022-10-31T15:13:44;26.95;;;16.92;;
5730;SDS011;2890;51.950;7.668;2022-10-31T15:16:11;27.98;;;16.15;;
5730;SDS011;2890;51.950;7.668;2022-10-31T15:18:46;25.92;;;16.75;;